createdAt,value
2022-11-10T00:01:43.632Z,4.70
2022-11-10T00:04:10.872Z,9.23
2022-11-10T00:06:38.539Z,7.17
2022-11-10T00:09:05.875Z,6.87
2022-11-10T00:11:33.674Z,11.90
2022-11-10T00:17:03.199Z,19.30
2022-11-10T00:19:35.990Z,10.57
2022-11-10T00:22:03.355Z,6.60
2022-11-10T00:24:30.884Z,5.63
2022-11-10T00:26:58.101Z,7.60
2022-11-10T00:29:25.136Z,9.60
2022-11-10T00:31:52.171Z,7.33
2022-11-10T00:34:19.266Z,6.90
2022-11-10T00:36:46.358Z,5.63
2022-11-10T00:39:13.662Z,7.30
2022-11-10T00:41:44.175Z,6.60
2022-11-10T00:44:11.682Z,12.10
2022-11-10T00:46:38.811Z,6.63
2022-11-10T00:49:05.882Z,8.60
2022-11-10T00:51:32.884Z,9.63
2022-11-10T00:53:59.868Z,6.43
2022-11-10T00:56:27.057Z,9.10
2022-11-10T00:58:54.078Z,10.60
2022-11-10T01:01:24.511Z,6.23
2022-11-10T01:03:52.621Z,6.70
2022-11-10T01:06:20.997Z,11.03
2022-11-10T01:08:48.910Z,10.20
2022-11-10T01:11:18.584Z,6.83
2022-11-10T01:13:46.285Z,6.20
2022-11-10T01:16:32.758Z,7.33
2022-11-10T01:19:01.837Z,6.60
2022-11-10T01:21:30.307Z,7.00
2022-11-10T01:23:57.594Z,10.90
2022-11-10T01:26:25.134Z,6.83
2022-11-10T01:28:52.289Z,11.87
2022-11-10T01:31:21.812Z,6.87
2022-11-10T01:33:49.092Z,8.00
2022-11-10T01:36:16.053Z,5.70
2022-11-10T01:38:43.750Z,6.33
2022-11-10T01:44:20.539Z,15.30
2022-11-10T01:46:47.549Z,23.70
2022-11-10T01:49:17.419Z,9.63
2022-11-10T01:52:16.803Z,5.90
2022-11-10T01:54:46.686Z,6.63
2022-11-10T01:57:15.305Z,6.50
2022-11-10T01:59:46.827Z,7.50
2022-11-10T02:02:26.169Z,3.83
2022-11-10T02:04:53.818Z,4.90
2022-11-10T02:07:22.629Z,10.50
2022-11-10T02:09:50.038Z,5.60
2022-11-10T02:12:36.983Z,3.73
2022-11-10T02:15:10.532Z,8.77
2022-11-10T02:17:37.570Z,5.50
2022-11-10T02:20:08.077Z,7.57
2022-11-10T02:22:34.995Z,6.67
2022-11-10T02:25:02.310Z,5.53
2022-11-10T02:27:30.747Z,6.47
2022-11-10T02:29:58.464Z,5.00
2022-11-10T02:32:25.467Z,7.90
2022-11-10T02:34:52.561Z,7.27
2022-11-10T02:37:19.701Z,4.70
2022-11-10T02:39:46.682Z,6.00
2022-11-10T02:42:13.654Z,3.90
2022-11-10T02:44:41.598Z,6.60
2022-11-10T02:47:08.900Z,7.50
2022-11-10T02:49:35.901Z,5.90
2022-11-10T02:52:02.962Z,5.80
2022-11-10T02:54:29.935Z,6.73
2022-11-10T02:56:56.932Z,5.23
2022-11-10T02:59:23.972Z,5.90
2022-11-10T03:01:50.934Z,5.83
2022-11-10T03:04:17.901Z,10.60
2022-11-10T03:06:45.190Z,5.73
2022-11-10T03:09:12.608Z,8.20
2022-11-10T03:11:39.879Z,10.73
2022-11-10T03:14:06.906Z,7.07
2022-11-10T03:16:33.917Z,6.90
2022-11-10T03:19:02.106Z,7.03
2022-11-10T03:21:29.079Z,10.53
2022-11-10T03:23:56.042Z,7.40
2022-11-10T03:26:23.245Z,6.80
2022-11-10T03:28:50.856Z,5.50
2022-11-10T03:31:17.899Z,6.90
2022-11-10T03:33:44.796Z,5.87
2022-11-10T03:36:11.874Z,4.70
2022-11-10T03:38:38.942Z,6.90
2022-11-10T03:41:21.553Z,5.27
2022-11-10T03:43:49.798Z,12.13
2022-11-10T03:46:17.232Z,13.93
2022-11-10T03:48:48.784Z,36.97
2022-11-10T03:51:19.270Z,25.07
2022-11-10T03:53:46.216Z,44.80
2022-11-10T03:56:13.349Z,23.97
2022-11-10T03:58:41.402Z,28.27
2022-11-10T04:01:08.667Z,10.67
2022-11-10T04:03:35.687Z,8.10
2022-11-10T04:06:20.949Z,9.77
2022-11-10T04:09:00.067Z,11.43
2022-11-10T04:11:50.461Z,10.53
2022-11-10T04:14:36.592Z,10.53
2022-11-10T04:17:04.811Z,9.87
2022-11-10T04:19:31.841Z,4.83
2022-11-10T04:21:58.917Z,7.53
2022-11-10T04:24:25.896Z,5.80
2022-11-10T04:26:52.887Z,10.90
2022-11-10T04:29:20.391Z,9.07
2022-11-10T04:31:47.537Z,8.20
2022-11-10T04:34:16.111Z,11.70
2022-11-10T04:36:44.385Z,10.00
2022-11-10T04:39:11.482Z,7.20
2022-11-10T04:41:38.753Z,8.27
2022-11-10T04:44:06.191Z,8.63
2022-11-10T04:46:40.390Z,6.23
2022-11-10T04:49:08.137Z,10.40
2022-11-10T04:51:38.045Z,9.13
2022-11-10T04:54:06.704Z,8.10
2022-11-10T04:56:34.917Z,10.00
2022-11-10T04:59:02.330Z,15.53
2022-11-10T05:01:29.579Z,16.17
2022-11-10T05:03:56.549Z,16.07
2022-11-10T05:06:24.274Z,14.63
2022-11-10T05:08:51.624Z,23.80
2022-11-10T05:11:18.777Z,13.43
2022-11-10T05:13:46.940Z,18.27
2022-11-10T05:16:14.168Z,12.00
2022-11-10T05:18:41.673Z,12.97
2022-11-10T05:21:08.729Z,14.60
2022-11-10T05:23:38.296Z,7.33
2022-11-10T05:26:14.745Z,9.20
2022-11-10T05:28:43.841Z,10.17
2022-11-10T05:31:11.639Z,7.80
2022-11-10T05:33:39.295Z,4.50
2022-11-10T05:36:07.795Z,7.07
2022-11-10T05:38:38.839Z,7.60
2022-11-10T05:41:07.339Z,5.70
2022-11-10T05:43:34.195Z,5.70
2022-11-10T05:46:01.155Z,4.77
2022-11-10T05:48:28.068Z,4.87
2022-11-10T05:50:58.546Z,8.60
2022-11-10T05:53:28.081Z,4.83
2022-11-10T05:55:55.044Z,6.97
2022-11-10T05:58:21.924Z,10.10
2022-11-10T06:00:48.872Z,7.80
2022-11-10T06:03:17.782Z,9.77
2022-11-10T06:05:45.322Z,6.40
2022-11-10T06:08:12.260Z,5.60
2022-11-10T06:10:39.613Z,6.27
2022-11-10T06:13:06.450Z,6.07
2022-11-10T06:15:33.476Z,6.50
2022-11-10T06:18:00.351Z,6.43
2022-11-10T06:20:28.308Z,6.33
2022-11-10T06:23:22.045Z,5.57
2022-11-10T06:25:49.113Z,4.80
2022-11-10T06:28:15.884Z,4.23
2022-11-10T06:30:42.828Z,4.60
2022-11-10T06:33:09.770Z,3.77
2022-11-10T06:35:36.689Z,5.80
2022-11-10T06:38:04.938Z,5.50
2022-11-10T06:40:32.328Z,6.20
2022-11-10T06:42:59.690Z,7.53
2022-11-10T06:46:00.311Z,8.20
2022-11-10T06:48:27.144Z,8.53
2022-11-10T06:50:54.021Z,5.63
2022-11-10T06:53:26.700Z,4.03
2022-11-10T06:55:53.909Z,4.00
2022-11-10T06:58:20.741Z,4.20
2022-11-10T07:00:47.556Z,5.80
2022-11-10T07:03:16.005Z,7.63
2022-11-10T07:05:44.303Z,4.10
2022-11-10T07:08:16.050Z,5.13
2022-11-10T07:10:45.064Z,5.30
2022-11-10T07:13:12.446Z,13.80
2022-11-10T07:15:39.253Z,7.60
2022-11-10T07:18:06.130Z,6.87
2022-11-10T07:20:33.465Z,10.10
2022-11-10T07:23:01.661Z,6.23
2022-11-10T07:25:30.324Z,5.50
2022-11-10T07:27:59.385Z,10.53
2022-11-10T07:30:28.426Z,5.93
2022-11-10T07:33:14.793Z,8.53
2022-11-10T07:35:42.196Z,6.40
2022-11-10T07:38:14.629Z,6.60
2022-11-10T07:40:41.624Z,4.80
2022-11-10T07:43:08.460Z,6.47
2022-11-10T07:45:35.345Z,4.93
2022-11-10T07:48:03.517Z,7.23
2022-11-10T07:50:30.906Z,12.63
2022-11-10T07:53:10.662Z,7.30
2022-11-10T07:55:39.660Z,13.43
2022-11-10T07:58:06.896Z,9.47
2022-11-10T08:00:35.247Z,5.67
2022-11-10T08:03:03.756Z,8.03
2022-11-10T08:05:32.372Z,7.23
2022-11-10T08:08:00.484Z,7.97
2022-11-10T08:10:28.703Z,7.23
2022-11-10T08:12:57.033Z,10.90
2022-11-10T08:15:24.892Z,6.80
2022-11-10T08:17:51.756Z,3.97
2022-11-10T08:20:18.905Z,4.70
2022-11-10T08:22:45.901Z,6.70
2022-11-10T08:25:12.981Z,5.20
2022-11-10T08:27:39.923Z,7.97
2022-11-10T08:30:08.214Z,6.40
2022-11-10T08:32:35.126Z,5.40
2022-11-10T08:35:01.970Z,7.17
2022-11-10T08:37:28.860Z,6.70
2022-11-10T08:39:55.743Z,4.90
2022-11-10T08:42:22.530Z,5.90
2022-11-10T08:44:49.391Z,5.87
2022-11-10T08:47:16.185Z,4.43
2022-11-10T08:49:43.047Z,8.17
2022-11-10T08:52:11.062Z,4.10
2022-11-10T08:54:37.896Z,8.27
2022-11-10T08:57:04.759Z,5.63
2022-11-10T08:59:31.653Z,6.30
2022-11-10T09:01:58.902Z,5.60
2022-11-10T09:04:25.890Z,7.90
2022-11-10T09:06:52.777Z,5.10
2022-11-10T09:09:19.676Z,4.77
2022-11-10T09:11:46.606Z,6.77
2022-11-10T09:14:13.536Z,7.70
2022-11-10T09:16:40.383Z,7.73
2022-11-10T09:19:07.287Z,5.97
2022-11-10T09:21:34.221Z,4.20
2022-11-10T09:24:01.108Z,6.60
2022-11-10T09:26:28.020Z,5.87
2022-11-10T09:28:54.937Z,5.20
2022-11-10T09:31:21.870Z,5.03
2022-11-10T09:33:49.208Z,10.80
2022-11-10T09:36:16.081Z,16.13
2022-11-10T09:38:43.002Z,16.87
2022-11-10T09:41:12.816Z,15.23
2022-11-10T09:43:57.095Z,8.63
2022-11-10T09:46:32.404Z,12.67
2022-11-10T09:49:13.411Z,10.80
2022-11-10T09:51:48.017Z,13.57
2022-11-10T09:54:56.817Z,12.80
2022-11-10T09:57:26.328Z,15.00
2022-11-10T09:59:54.924Z,9.00
2022-11-10T10:02:38.094Z,7.50
2022-11-10T10:05:40.965Z,7.17
2022-11-10T10:08:11.890Z,9.90
2022-11-10T10:10:55.873Z,13.30
2022-11-10T10:13:32.060Z,23.13
2022-11-10T10:16:11.021Z,10.83
2022-11-10T10:18:48.121Z,16.07
2022-11-10T10:21:50.544Z,9.90
2022-11-10T10:24:22.296Z,10.23
2022-11-10T10:26:56.822Z,14.23
2022-11-10T10:29:31.909Z,22.13
2022-11-10T10:32:01.627Z,12.43
2022-11-10T10:34:31.386Z,8.93
2022-11-10T10:36:58.647Z,9.10
2022-11-10T10:39:31.650Z,8.73
2022-11-10T10:41:58.675Z,13.00
2022-11-10T10:44:25.803Z,8.30
2022-11-10T10:46:58.386Z,10.10
2022-11-10T10:49:33.503Z,6.37
2022-11-10T10:52:12.199Z,12.50
2022-11-10T10:54:40.079Z,5.83
2022-11-10T10:57:23.802Z,6.63
2022-11-10T10:59:51.914Z,8.97
2022-11-10T11:02:26.756Z,7.70
2022-11-10T11:05:15.923Z,6.60
2022-11-10T11:08:01.698Z,9.60
2022-11-10T11:10:31.732Z,10.17
2022-11-10T11:13:26.357Z,15.17
2022-11-10T11:16:01.714Z,19.37
2022-11-10T11:18:30.950Z,10.40
2022-11-10T11:21:09.803Z,10.87
2022-11-10T11:23:45.838Z,10.80
2022-11-10T11:26:22.320Z,13.80
2022-11-10T11:28:52.100Z,11.43
2022-11-10T11:31:38.837Z,5.90
2022-11-10T11:34:28.150Z,6.43
2022-11-10T11:37:19.641Z,8.87
2022-11-10T11:40:13.178Z,8.17
2022-11-10T11:42:45.601Z,9.17
2022-11-10T11:45:40.569Z,9.63
2022-11-10T11:48:43.117Z,7.27
2022-11-10T11:51:39.889Z,17.03
2022-11-10T11:54:38.992Z,20.30
2022-11-10T11:57:20.956Z,3.90
2022-11-10T12:00:13.387Z,3.27
2022-11-10T12:03:07.799Z,5.20
2022-11-10T12:05:45.933Z,11.10
2022-11-10T12:08:29.380Z,10.10
2022-11-10T12:10:59.301Z,6.17
2022-11-10T12:13:36.203Z,17.87
2022-11-10T12:16:23.350Z,16.53
2022-11-10T12:19:02.661Z,20.63
2022-11-10T12:21:51.229Z,20.70
2022-11-10T12:24:36.220Z,20.47
2022-11-10T12:27:18.108Z,10.40
2022-11-10T12:29:54.582Z,16.17
2022-11-10T12:32:42.942Z,27.20
2022-11-10T12:35:24.427Z,17.87
2022-11-10T12:38:22.813Z,7.87
2022-11-10T12:40:52.486Z,11.23
2022-11-10T12:43:43.796Z,20.00
2022-11-10T12:46:12.721Z,10.80
2022-11-10T12:49:10.040Z,13.40
2022-11-10T12:51:51.386Z,9.07
2022-11-10T12:54:21.245Z,6.80
2022-11-10T12:56:53.251Z,13.23
2022-11-10T12:59:20.029Z,12.30
2022-11-10T13:01:53.147Z,10.47
2022-11-10T13:04:22.528Z,7.40
2022-11-10T13:06:53.292Z,4.80
2022-11-10T13:09:39.022Z,7.10
2022-11-10T13:12:22.279Z,8.20
2022-11-10T13:14:49.435Z,7.83
2022-11-10T13:17:28.587Z,3.73
2022-11-10T13:20:05.241Z,4.40
2022-11-10T13:22:44.290Z,7.07
2022-11-10T13:25:36.487Z,5.70
2022-11-10T13:28:04.584Z,3.93
2022-11-10T13:30:41.388Z,12.53
2022-11-10T13:33:23.569Z,16.23
2022-11-10T13:35:57.870Z,26.17
2022-11-10T13:38:44.755Z,10.53
2022-11-10T13:41:17.870Z,18.50
2022-11-10T13:43:53.979Z,13.33
2022-11-10T13:46:35.211Z,13.20
2022-11-10T13:49:15.655Z,19.73
2022-11-10T13:51:54.712Z,15.97
2022-11-10T13:55:04.805Z,10.93
2022-11-10T13:57:54.904Z,12.10
2022-11-10T14:00:24.243Z,11.40
2022-11-10T14:02:54.561Z,16.33
2022-11-10T14:05:38.281Z,37.90
2022-11-10T14:08:22.517Z,11.37
2022-11-10T14:11:04.943Z,11.43
2022-11-10T14:13:46.446Z,16.30
2022-11-10T14:16:23.179Z,3.97
2022-11-10T14:19:04.409Z,5.57
2022-11-10T14:21:41.092Z,4.43
2022-11-10T14:24:20.827Z,4.73
2022-11-10T14:26:57.623Z,5.07
2022-11-10T14:29:29.184Z,5.33
2022-11-10T14:32:02.622Z,11.00
2022-11-10T14:34:32.194Z,5.20
2022-11-10T14:37:01.709Z,7.50
2022-11-10T14:39:34.070Z,8.43
2022-11-10T14:42:03.331Z,6.77
2022-11-10T14:44:31.644Z,6.60
2022-11-10T14:47:15.896Z,6.10
2022-11-10T14:49:45.900Z,9.10
2022-11-10T14:52:13.703Z,6.83
2022-11-10T14:54:45.890Z,11.90
2022-11-10T14:57:18.379Z,7.53
2022-11-10T14:59:46.223Z,6.50
2022-11-10T15:02:16.798Z,7.63
2022-11-10T15:04:46.201Z,4.43
2022-11-10T15:07:13.605Z,5.33
2022-11-10T15:09:40.784Z,8.30
2022-11-10T15:12:13.705Z,5.50
2022-11-10T15:14:46.658Z,7.53
2022-11-10T15:17:16.992Z,5.07
2022-11-10T15:19:47.050Z,6.40
2022-11-10T15:22:29.645Z,6.03
2022-11-10T15:25:00.252Z,4.77
2022-11-10T15:27:29.348Z,3.00
2022-11-10T15:29:59.055Z,5.13
2022-11-10T15:32:41.960Z,3.73
2022-11-10T15:35:22.872Z,4.40
2022-11-10T15:38:06.576Z,4.37
2022-11-10T15:40:42.483Z,3.87
2022-11-10T15:43:26.449Z,5.53
2022-11-10T15:46:03.426Z,4.47
2022-11-10T15:48:39.157Z,4.00
2022-11-10T15:51:06.326Z,5.00
2022-11-10T15:53:37.427Z,5.50
2022-11-10T15:56:07.000Z,4.10
2022-11-10T15:58:33.877Z,3.60
2022-11-10T16:01:01.652Z,5.30
2022-11-10T16:03:36.149Z,4.97
2022-11-10T16:06:02.971Z,4.57
2022-11-10T16:08:32.134Z,4.43
2022-11-10T16:10:59.030Z,5.00
2022-11-10T16:13:28.661Z,4.80
2022-11-10T16:15:56.161Z,5.83
2022-11-10T16:18:26.187Z,4.23
2022-11-10T16:20:53.300Z,3.93
2022-11-10T16:23:20.782Z,4.37
2022-11-10T16:25:50.410Z,4.13
2022-11-10T16:28:26.487Z,3.53
2022-11-10T16:30:54.448Z,4.27
2022-11-10T16:33:23.649Z,3.77
2022-11-10T16:35:52.426Z,6.67
2022-11-10T16:38:27.886Z,6.20
2022-11-10T16:40:55.920Z,5.90
2022-11-10T16:43:23.321Z,7.37
2022-11-10T16:45:53.670Z,6.10
2022-11-10T16:48:30.436Z,4.97
2022-11-10T16:50:59.149Z,5.07
2022-11-10T16:53:29.090Z,4.47
2022-11-10T16:55:56.662Z,5.67
2022-11-10T16:58:29.480Z,5.57
2022-11-10T17:01:00.093Z,5.43
2022-11-10T17:03:31.748Z,11.07
2022-11-10T17:05:59.538Z,8.47
2022-11-10T17:08:29.373Z,5.07
2022-11-10T17:10:56.909Z,6.97
2022-11-10T17:13:25.206Z,5.00
2022-11-10T17:16:07.170Z,4.50
2022-11-10T17:18:35.197Z,4.60
2022-11-10T17:21:04.278Z,5.17
2022-11-10T17:23:33.418Z,6.10
2022-11-10T17:26:00.558Z,5.17
2022-11-10T17:28:27.469Z,4.50
2022-11-10T17:30:54.304Z,3.70
2022-11-10T17:33:21.641Z,5.03
2022-11-10T17:35:51.079Z,6.03
2022-11-10T17:38:24.095Z,3.90
2022-11-10T17:40:51.216Z,6.10
2022-11-10T17:43:18.499Z,5.77
2022-11-10T17:45:45.452Z,6.83
2022-11-10T17:48:12.463Z,7.40
2022-11-10T17:50:42.995Z,5.73
2022-11-10T17:53:26.232Z,7.27
2022-11-10T17:55:53.861Z,17.00
2022-11-10T17:58:20.949Z,4.97
2022-11-10T18:00:48.177Z,15.93
2022-11-10T18:03:17.425Z,8.30
2022-11-10T18:05:45.166Z,3.70
2022-11-10T18:08:13.537Z,4.20
2022-11-10T18:10:47.151Z,4.10
2022-11-10T18:13:14.415Z,4.77
2022-11-10T18:15:45.285Z,2.87
2022-11-10T18:18:16.634Z,6.70
2022-11-10T18:20:44.406Z,11.93
2022-11-10T18:23:12.658Z,4.87
2022-11-10T18:25:41.455Z,5.57
2022-11-10T18:28:09.646Z,9.13
2022-11-10T18:30:37.857Z,5.63
2022-11-10T18:33:05.402Z,5.50
2022-11-10T18:35:37.771Z,5.70
2022-11-10T18:38:05.517Z,5.23
2022-11-10T18:40:32.865Z,6.07
2022-11-10T18:43:05.912Z,5.53
2022-11-10T18:45:35.315Z,4.80
2022-11-10T18:48:03.515Z,4.30
2022-11-10T18:50:30.604Z,6.83
2022-11-10T18:52:57.948Z,3.53
2022-11-10T18:55:25.422Z,4.80
2022-11-10T18:57:52.854Z,5.00
2022-11-10T19:00:19.876Z,4.90
2022-11-10T19:02:46.895Z,3.83
2022-11-10T19:05:13.787Z,4.40
2022-11-10T19:07:40.783Z,3.13
2022-11-10T19:10:07.896Z,4.00
2022-11-10T19:12:34.945Z,5.13
2022-11-10T19:15:01.944Z,9.53
2022-11-10T19:17:28.716Z,37.37
2022-11-10T19:19:56.846Z,35.20
2022-11-10T19:22:23.907Z,28.33
2022-11-10T19:25:07.703Z,20.60
2022-11-10T19:27:35.376Z,14.03
2022-11-10T19:30:02.338Z,35.97
2022-11-10T19:32:29.946Z,23.07
2022-11-10T19:34:56.827Z,26.53
2022-11-10T19:37:23.797Z,31.87
2022-11-10T19:39:50.667Z,26.17
2022-11-10T19:42:17.520Z,22.73
2022-11-10T19:44:44.495Z,28.80
2022-11-10T19:47:11.749Z,33.97
2022-11-10T19:49:38.823Z,28.80
2022-11-10T19:52:06.264Z,32.20
2022-11-10T19:54:33.207Z,25.67
2022-11-10T19:57:01.153Z,15.67
2022-11-10T19:59:28.079Z,13.87
2022-11-10T20:01:56.417Z,10.40
2022-11-10T20:04:23.272Z,24.80
2022-11-10T20:07:10.155Z,12.70
2022-11-10T20:09:37.079Z,10.57
2022-11-10T20:12:04.045Z,16.77
2022-11-10T20:14:30.911Z,17.63
2022-11-10T20:16:58.012Z,13.87
2022-11-10T20:19:24.843Z,12.10
2022-11-10T20:21:51.701Z,20.47
2022-11-10T20:24:18.522Z,18.53
2022-11-10T20:26:45.333Z,18.37
2022-11-10T20:29:12.230Z,11.27
2022-11-10T20:31:39.158Z,22.23
2022-11-10T20:34:06.002Z,11.17
2022-11-10T20:36:33.997Z,12.20
2022-11-10T20:39:00.952Z,13.67
2022-11-10T20:41:29.634Z,24.70
2022-11-10T20:43:57.450Z,9.80
2022-11-10T20:49:11.696Z,15.40
2022-11-10T20:51:38.656Z,11.50
2022-11-10T20:54:05.582Z,9.70
2022-11-10T20:56:32.471Z,11.90
2022-11-10T20:58:59.480Z,11.73
2022-11-10T21:01:26.795Z,12.80
2022-11-10T21:03:54.634Z,17.37
2022-11-10T21:06:21.672Z,16.93
2022-11-10T21:08:48.607Z,11.67
2022-11-10T21:11:35.604Z,11.00
2022-11-10T21:14:02.550Z,15.17
2022-11-10T21:16:32.051Z,7.97
2022-11-10T21:19:00.740Z,10.10
2022-11-10T21:21:35.898Z,12.63
2022-11-10T21:24:07.218Z,6.00
2022-11-10T21:26:35.818Z,9.20
2022-11-10T21:29:04.166Z,14.60
2022-11-10T21:31:31.207Z,16.23
2022-11-10T21:33:58.506Z,8.60
2022-11-10T21:36:29.161Z,19.40
2022-11-10T21:38:57.086Z,28.87
2022-11-10T21:41:24.563Z,21.80
2022-11-10T21:43:51.591Z,7.27
2022-11-10T21:46:18.581Z,8.10
2022-11-10T21:48:45.596Z,6.60
2022-11-10T21:51:14.156Z,6.80
2022-11-10T21:53:44.446Z,11.27
2022-11-10T21:56:12.410Z,7.07
2022-11-10T21:58:40.396Z,8.40
2022-11-10T22:01:11.489Z,14.47
2022-11-10T22:03:38.994Z,30.43
2022-11-10T22:06:14.170Z,20.97
2022-11-10T22:08:42.520Z,8.70
2022-11-10T22:11:39.091Z,19.93
2022-11-10T22:14:30.995Z,5.30
2022-11-10T22:17:31.380Z,12.30
2022-11-10T22:19:58.240Z,8.43
2022-11-10T22:22:25.109Z,8.10
2022-11-10T22:24:51.898Z,8.77
2022-11-10T22:27:18.741Z,6.80
2022-11-10T22:29:45.595Z,7.93
2022-11-10T22:32:12.437Z,7.50
2022-11-10T22:34:39.325Z,8.77
2022-11-10T22:37:06.117Z,10.50
2022-11-10T22:39:52.019Z,12.70
2022-11-10T22:42:37.438Z,25.50
2022-11-10T22:45:04.624Z,22.33
2022-11-10T22:47:51.380Z,12.30
2022-11-10T22:50:18.241Z,8.00
2022-11-10T22:52:45.052Z,8.60
2022-11-10T22:55:11.964Z,10.80
2022-11-10T22:57:38.773Z,11.40
2022-11-10T23:00:06.222Z,7.23
2022-11-10T23:02:33.159Z,7.00
2022-11-10T23:05:00.024Z,7.90
2022-11-10T23:07:28.076Z,6.83
2022-11-10T23:09:54.908Z,5.57
2022-11-10T23:12:21.810Z,7.00
2022-11-10T23:14:48.615Z,7.67
2022-11-10T23:17:15.441Z,6.63
2022-11-10T23:19:42.369Z,6.43
2022-11-10T23:22:09.221Z,8.87
2022-11-10T23:24:36.047Z,10.17
2022-11-10T23:27:02.910Z,15.97
2022-11-10T23:29:29.733Z,8.20
2022-11-10T23:31:59.238Z,9.33
2022-11-10T23:34:26.096Z,9.13
2022-11-10T23:36:52.929Z,6.80
2022-11-10T23:39:19.722Z,5.87
2022-11-10T23:41:46.509Z,7.03
2022-11-10T23:44:13.286Z,8.50
2022-11-10T23:46:40.258Z,6.30
2022-11-10T23:49:07.029Z,6.40
2022-11-10T23:51:33.862Z,7.17
2022-11-10T23:54:00.688Z,4.90
2022-11-10T23:56:27.541Z,10.03
2022-11-10T23:58:54.341Z,10.30
